createdAt,value
2023-03-01T00:00:59.779Z,63.49
2023-03-01T00:01:59.815Z,72.03
2023-03-01T00:02:59.777Z,60.91
2023-03-01T00:03:59.758Z,58.01
2023-03-01T00:04:59.749Z,60.59
2023-03-01T00:05:59.765Z,65.10
2023-03-01T00:06:59.797Z,64.29
2023-03-01T00:07:59.738Z,62.20
2023-03-01T00:08:59.717Z,67.84
2023-03-01T00:09:59.709Z,61.87
2023-03-01T00:10:59.730Z,62.68
2023-03-01T00:11:59.704Z,62.36
2023-03-01T00:12:59.698Z,52.05
2023-03-01T00:13:59.679Z,60.26
2023-03-01T00:14:59.683Z,69.77
2023-03-01T00:15:59.663Z,59.14
2023-03-01T00:16:59.721Z,64.29
2023-03-01T00:17:59.654Z,58.17
2023-03-01T00:18:59.662Z,62.20
2023-03-01T00:19:59.656Z,63.00
2023-03-01T00:20:59.624Z,65.10
2023-03-01T00:21:59.621Z,61.23
2023-03-01T00:22:59.614Z,64.78
2023-03-01T00:25:48.714Z,64.45
2023-03-01T00:26:48.708Z,62.52
2023-03-01T00:27:48.689Z,61.55
2023-03-01T00:28:48.680Z,60.26
2023-03-01T00:29:48.668Z,64.45
2023-03-01T00:30:48.694Z,65.10
2023-03-01T00:31:48.729Z,64.61
2023-03-01T00:32:48.653Z,63.16
2023-03-01T00:33:48.641Z,54.79
2023-03-01T00:34:48.637Z,58.97
2023-03-01T00:35:48.758Z,58.49
2023-03-01T00:36:48.621Z,60.26
2023-03-01T00:37:49.716Z,62.20
2023-03-01T00:38:49.698Z,58.65
2023-03-01T00:39:49.704Z,65.74
2023-03-01T00:40:49.683Z,63.49
2023-03-01T00:41:49.673Z,57.85
2023-03-01T00:42:49.680Z,65.10
2023-03-01T00:43:49.661Z,70.90
2023-03-01T00:44:49.649Z,68.64
2023-03-01T00:45:49.670Z,56.88
2023-03-01T00:46:49.641Z,64.94
2023-03-01T00:47:49.657Z,66.06
2023-03-01T00:48:49.618Z,58.81
2023-03-01T00:49:49.618Z,49.15
2023-03-01T00:50:49.613Z,53.50
2023-03-01T00:51:49.606Z,66.71
2023-03-01T00:52:49.594Z,57.69
2023-03-01T00:53:49.581Z,48.50
2023-03-01T00:54:49.608Z,69.13
2023-03-01T00:55:49.578Z,68.00
2023-03-01T00:56:49.560Z,71.22
2023-03-01T00:57:49.562Z,66.23
2023-03-01T00:58:49.551Z,68.32
2023-03-01T00:59:49.532Z,65.42
2023-03-01T01:00:49.528Z,60.26
2023-03-01T01:01:49.556Z,61.39
2023-03-01T01:02:49.717Z,58.65
2023-03-01T01:03:49.500Z,57.52
2023-03-01T01:04:49.491Z,65.90
2023-03-01T01:05:49.480Z,65.10
2023-03-01T01:06:49.482Z,49.63
2023-03-01T01:07:49.481Z,60.10
2023-03-01T01:08:49.485Z,58.81
2023-03-01T01:09:50.366Z,65.74
2023-03-01T01:10:49.446Z,62.20
2023-03-01T01:11:49.450Z,54.95
2023-03-01T01:12:49.426Z,61.71
2023-03-01T01:13:49.424Z,65.26
2023-03-01T01:14:49.413Z,66.39
2023-03-01T01:15:49.434Z,58.49
2023-03-01T01:16:49.389Z,68.64
2023-03-01T01:17:49.400Z,65.42
2023-03-01T01:18:49.382Z,58.81
2023-03-01T01:19:49.371Z,64.61
2023-03-01T01:20:49.360Z,67.03
2023-03-01T01:21:49.418Z,65.58
2023-03-01T01:22:49.357Z,66.39
2023-03-01T01:23:49.346Z,62.68
2023-03-01T01:24:49.331Z,65.10
2023-03-01T01:25:49.322Z,52.53
2023-03-01T01:26:49.316Z,55.43
2023-03-01T01:27:49.312Z,67.03
2023-03-01T01:28:49.303Z,70.58
2023-03-01T01:29:49.293Z,65.42
2023-03-01T01:30:49.291Z,60.75
2023-03-01T01:31:49.300Z,57.04
2023-03-01T01:32:49.273Z,54.79
2023-03-01T01:33:49.258Z,60.10
2023-03-01T01:34:49.255Z,66.87
2023-03-01T01:35:49.311Z,65.74
2023-03-01T01:36:49.243Z,56.88
2023-03-01T01:37:49.232Z,48.02
2023-03-01T01:38:49.227Z,66.71
2023-03-01T01:39:49.216Z,51.72
2023-03-01T01:40:49.215Z,52.05
2023-03-01T01:41:49.216Z,61.07
2023-03-01T01:42:49.190Z,62.84
2023-03-01T01:43:49.183Z,70.42
2023-03-01T01:44:49.190Z,59.78
2023-03-01T01:45:49.164Z,60.10
2023-03-01T01:46:49.234Z,57.69
2023-03-01T01:47:49.155Z,63.00
2023-03-01T01:48:49.139Z,58.65
2023-03-01T01:49:49.131Z,68.32
2023-03-01T01:50:49.121Z,68.64
2023-03-01T01:51:49.137Z,54.30
2023-03-01T01:52:49.119Z,55.43
2023-03-01T01:53:49.106Z,60.59
2023-03-01T01:54:49.090Z,56.24
2023-03-01T01:55:49.081Z,61.55
2023-03-01T01:56:49.076Z,53.50
2023-03-01T01:57:49.064Z,64.29
2023-03-01T01:58:49.059Z,62.52
2023-03-01T01:59:49.045Z,49.95
2023-03-01T02:00:49.059Z,49.15
2023-03-01T02:01:49.030Z,47.37
2023-03-01T02:02:49.054Z,52.05
2023-03-01T02:03:49.069Z,59.78
2023-03-01T02:04:49.011Z,65.58
2023-03-01T02:05:54.942Z,57.69
2023-03-01T02:06:51.950Z,47.37
2023-03-01T02:07:48.993Z,62.52
2023-03-01T02:08:48.982Z,53.33
2023-03-01T02:09:48.984Z,60.26
2023-03-01T02:10:48.964Z,56.07
2023-03-01T02:11:48.974Z,52.37
2023-03-01T02:12:48.949Z,61.55
2023-03-01T02:13:48.945Z,58.01
2023-03-01T02:14:48.930Z,49.79
2023-03-01T02:15:48.955Z,64.78
2023-03-01T02:16:48.948Z,65.26
2023-03-01T02:17:48.911Z,66.39
2023-03-01T02:18:48.903Z,52.21
2023-03-01T02:19:50.445Z,61.07
2023-03-01T02:20:48.895Z,62.04
2023-03-01T02:21:48.886Z,57.52
2023-03-01T02:22:48.879Z,55.91
2023-03-01T02:23:48.871Z,55.91
2023-03-01T02:24:48.857Z,47.53
2023-03-01T02:25:48.851Z,55.27
2023-03-01T02:26:48.841Z,70.42
2023-03-01T02:27:48.836Z,64.78
2023-03-01T02:28:49.375Z,58.01
2023-03-01T02:29:52.455Z,67.68
2023-03-01T02:30:48.820Z,63.49
2023-03-01T02:31:48.890Z,63.33
2023-03-01T02:32:48.803Z,61.55
2023-03-01T02:33:48.788Z,59.78
2023-03-01T02:34:48.790Z,59.30
2023-03-01T02:35:48.799Z,65.42
2023-03-01T02:36:48.767Z,63.97
2023-03-01T02:37:48.760Z,62.84
2023-03-01T02:38:48.761Z,54.14
2023-03-01T02:39:48.747Z,47.37
2023-03-01T02:40:49.769Z,55.59
2023-03-01T02:41:48.760Z,59.30
2023-03-01T02:42:48.725Z,61.39
2023-03-01T02:43:48.725Z,68.16
2023-03-01T02:44:48.713Z,63.16
2023-03-01T02:45:48.709Z,68.80
2023-03-01T02:46:48.844Z,63.65
2023-03-01T02:47:48.689Z,61.87
2023-03-01T02:48:48.684Z,60.75
2023-03-01T02:49:48.683Z,66.06
2023-03-01T02:50:48.673Z,58.01
2023-03-01T02:51:48.684Z,65.58
2023-03-01T02:52:48.656Z,65.10
2023-03-01T02:53:49.455Z,58.49
2023-03-01T02:54:48.644Z,64.13
2023-03-01T02:55:48.636Z,62.52
2023-03-01T02:56:48.627Z,66.71
2023-03-01T02:57:48.609Z,57.04
2023-03-01T02:58:48.611Z,60.26
2023-03-01T02:59:48.601Z,60.75
2023-03-01T03:00:49.607Z,60.59
2023-03-01T03:01:48.582Z,52.21
2023-03-01T03:02:48.570Z,58.97
2023-03-01T03:03:48.608Z,62.36
2023-03-01T03:04:48.560Z,61.07
2023-03-01T03:05:48.573Z,59.94
2023-03-01T03:06:48.548Z,69.13
2023-03-01T03:07:48.532Z,59.78
2023-03-01T03:08:48.533Z,62.04
2023-03-01T03:09:48.524Z,55.43
2023-03-01T03:10:48.517Z,63.33
2023-03-01T03:11:48.511Z,52.85
2023-03-01T03:12:48.506Z,57.20
2023-03-01T03:13:48.488Z,63.00
2023-03-01T03:14:48.480Z,71.54
2023-03-01T03:15:48.480Z,61.55
2023-03-01T03:16:48.465Z,63.65
2023-03-01T03:17:48.454Z,63.16
2023-03-01T03:18:48.453Z,60.10
2023-03-01T03:19:48.464Z,63.00
2023-03-01T03:20:48.445Z,63.81
2023-03-01T03:21:48.433Z,61.07
2023-03-01T03:22:48.420Z,62.20
2023-03-01T03:23:48.412Z,62.84
2023-03-01T03:24:51.379Z,63.33
2023-03-01T03:25:53.986Z,64.78
2023-03-01T03:26:48.387Z,61.71
2023-03-01T03:27:48.388Z,58.49
2023-03-01T03:28:48.377Z,67.35
2023-03-01T03:29:51.178Z,61.87
2023-03-01T03:30:53.885Z,62.68
2023-03-01T03:31:53.176Z,62.36
2023-03-01T03:32:50.955Z,66.39
2023-03-01T03:33:54.911Z,58.81
2023-03-01T03:35:20.920Z,62.84
2023-03-01T03:35:48.413Z,62.36
2023-03-01T03:36:48.312Z,62.68
2023-03-01T03:37:48.303Z,61.87
2023-03-01T03:38:50.967Z,65.42
2023-03-01T03:39:48.290Z,61.87
2023-03-01T03:40:48.321Z,61.39
2023-03-01T03:41:48.312Z,60.59
2023-03-01T03:42:48.271Z,64.29
2023-03-01T03:43:48.266Z,58.97
2023-03-01T03:44:48.253Z,67.19
2023-03-01T03:45:48.297Z,60.91
2023-03-01T03:46:48.997Z,57.52
2023-03-01T03:47:48.228Z,59.14
2023-03-01T03:48:48.230Z,64.13
2023-03-01T03:49:48.216Z,59.62
2023-03-01T03:50:48.231Z,67.19
2023-03-01T03:51:48.199Z,65.74
2023-03-01T03:52:48.193Z,65.74
2023-03-01T03:53:48.181Z,65.74
2023-03-01T03:54:48.187Z,67.51
2023-03-01T03:55:48.177Z,64.13
2023-03-01T03:56:48.161Z,69.77
2023-03-01T03:57:49.158Z,63.33
2023-03-01T03:58:48.982Z,62.04
2023-03-01T03:59:48.151Z,61.07
2023-03-01T04:00:48.136Z,53.82
2023-03-01T04:01:48.192Z,59.30
2023-03-01T04:02:48.155Z,62.52
2023-03-01T04:03:49.977Z,66.71
2023-03-01T04:04:48.103Z,64.29
2023-03-01T04:05:50.914Z,63.33
2023-03-01T04:06:50.919Z,75.41
2023-03-01T04:07:48.077Z,65.42
2023-03-01T04:08:48.066Z,67.19
2023-03-01T04:09:48.085Z,61.23
2023-03-01T04:10:48.054Z,67.19
2023-03-01T04:11:48.052Z,73.15
2023-03-01T04:12:48.045Z,70.25
2023-03-01T04:13:48.080Z,76.54
2023-03-01T04:14:48.978Z,80.89
2023-03-01T04:15:49.013Z,77.99
2023-03-01T04:16:48.048Z,75.25
2023-03-01T04:17:48.002Z,76.86
2023-03-01T04:18:48.001Z,68.96
2023-03-01T04:19:47.988Z,68.16
2023-03-01T04:20:47.979Z,69.77
2023-03-01T04:21:47.973Z,74.77
2023-03-01T04:22:47.954Z,67.35
2023-03-01T04:23:47.978Z,62.04
2023-03-01T04:24:47.945Z,64.61
2023-03-01T04:25:47.936Z,66.06
2023-03-01T04:26:47.931Z,64.29
2023-03-01T04:27:47.922Z,61.55
2023-03-01T04:28:47.925Z,66.39
2023-03-01T04:29:47.910Z,70.25
2023-03-01T04:30:47.903Z,68.48
2023-03-01T04:31:47.984Z,61.55
2023-03-01T04:32:47.886Z,67.03
2023-03-01T04:33:48.589Z,66.71
2023-03-01T04:34:50.490Z,66.23
2023-03-01T04:35:48.456Z,67.84
2023-03-01T04:36:48.088Z,68.80
2023-03-01T04:37:47.831Z,75.41
2023-03-01T04:38:48.841Z,77.02
2023-03-01T04:39:47.832Z,75.41
2023-03-01T04:40:47.821Z,82.02
2023-03-01T04:41:47.817Z,64.61
2023-03-01T04:42:47.802Z,67.84
2023-03-01T04:43:47.805Z,66.23
2023-03-01T04:44:47.794Z,90.40
2023-03-01T04:45:47.815Z,75.09
2023-03-01T04:46:47.778Z,77.83
2023-03-01T04:47:47.779Z,71.06
2023-03-01T04:48:47.764Z,68.80
2023-03-01T04:49:47.754Z,68.16
2023-03-01T04:50:47.754Z,70.42
2023-03-01T04:51:47.736Z,73.96
2023-03-01T04:52:47.730Z,68.32
2023-03-01T04:53:48.537Z,76.54
2023-03-01T04:54:48.713Z,73.15
2023-03-01T04:55:47.715Z,69.45
2023-03-01T04:56:47.702Z,67.84
2023-03-01T04:57:47.705Z,65.10
2023-03-01T04:58:47.696Z,67.84
2023-03-01T04:59:47.682Z,66.55
2023-03-01T05:00:47.681Z,67.51
2023-03-01T05:01:47.666Z,65.10
2023-03-01T05:02:47.691Z,73.15
2023-03-01T05:03:47.658Z,75.57
2023-03-01T05:04:47.667Z,68.16
2023-03-01T05:05:47.641Z,71.38
2023-03-01T05:06:47.629Z,74.28
2023-03-01T05:07:47.616Z,71.70
2023-03-01T05:08:47.628Z,67.51
2023-03-01T05:09:48.428Z,68.64
2023-03-01T05:10:47.598Z,69.77
2023-03-01T05:11:47.589Z,66.06
2023-03-01T05:12:47.582Z,68.16
2023-03-01T05:13:48.417Z,71.87
2023-03-01T05:14:47.561Z,65.42
2023-03-01T05:15:47.600Z,68.96
2023-03-01T05:16:48.433Z,68.32
2023-03-01T05:17:47.539Z,68.32
2023-03-01T05:18:47.572Z,70.58
2023-03-01T05:19:47.525Z,70.25
2023-03-01T05:20:47.522Z,74.28
2023-03-01T05:21:47.502Z,78.79
2023-03-01T05:22:47.509Z,70.25
2023-03-01T05:23:47.505Z,72.35
2023-03-01T05:24:47.540Z,70.42
2023-03-01T05:25:47.511Z,74.93
2023-03-01T05:26:48.988Z,69.61
2023-03-01T05:27:47.471Z,72.19
2023-03-01T05:28:47.481Z,73.15
2023-03-01T05:29:47.448Z,68.48
2023-03-01T05:30:47.506Z,67.35
2023-03-01T05:31:47.595Z,71.22
2023-03-01T05:32:47.430Z,69.77
2023-03-01T05:33:47.449Z,68.64
2023-03-01T05:34:47.436Z,76.38
2023-03-01T05:35:47.436Z,74.77
2023-03-01T05:36:47.415Z,70.25
2023-03-01T05:37:47.402Z,70.09
2023-03-01T05:38:47.431Z,69.29
2023-03-01T05:39:48.930Z,67.19
2023-03-01T05:40:47.371Z,68.32
2023-03-01T05:41:47.363Z,67.35
2023-03-01T05:42:47.369Z,68.32
2023-03-01T05:43:47.346Z,70.90
2023-03-01T05:44:47.352Z,71.38
2023-03-01T05:45:47.404Z,70.09
2023-03-01T05:46:47.323Z,71.38
2023-03-01T05:47:47.331Z,68.80
2023-03-01T05:48:47.304Z,69.45
2023-03-01T05:49:47.302Z,70.90
2023-03-01T05:50:47.294Z,74.28
2023-03-01T05:51:47.286Z,69.29
2023-03-01T05:52:47.276Z,76.22
2023-03-01T05:53:47.269Z,68.80
2023-03-01T05:54:47.293Z,69.61
2023-03-01T05:55:47.933Z,69.61
2023-03-01T05:56:47.254Z,72.99
2023-03-01T05:57:47.307Z,70.09
2023-03-01T05:58:48.239Z,70.09
2023-03-01T05:59:47.227Z,70.90
2023-03-01T06:00:47.235Z,74.12
2023-03-01T06:01:47.218Z,75.57
2023-03-01T06:02:47.218Z,72.67
2023-03-01T06:03:48.226Z,69.29
2023-03-01T06:04:47.307Z,73.15
2023-03-01T06:05:47.362Z,78.47
2023-03-01T06:06:47.172Z,73.96
2023-03-01T06:07:47.172Z,69.93
2023-03-01T06:08:47.158Z,68.80
2023-03-01T06:09:47.156Z,69.61
2023-03-01T06:10:47.146Z,70.42
2023-03-01T06:11:48.002Z,68.48
2023-03-01T06:12:47.137Z,69.77
2023-03-01T06:13:47.120Z,81.37
2023-03-01T06:14:47.116Z,73.48
2023-03-01T06:15:47.129Z,72.35
2023-03-01T06:16:47.095Z,67.51
2023-03-01T06:17:47.110Z,73.15
2023-03-01T06:18:47.091Z,76.22
2023-03-01T06:19:47.097Z,74.12
2023-03-01T06:20:47.080Z,72.99
2023-03-01T06:21:47.081Z,78.31
2023-03-01T06:22:47.066Z,71.54
2023-03-01T06:23:47.048Z,71.54
2023-03-01T06:24:47.926Z,72.35
2023-03-01T06:25:47.032Z,75.89
2023-03-01T06:26:47.031Z,75.25
2023-03-01T06:27:47.012Z,71.22
2023-03-01T06:28:47.074Z,71.70
2023-03-01T06:29:47.001Z,75.09
2023-03-01T06:30:46.988Z,77.50
2023-03-01T06:31:46.986Z,75.25
2023-03-01T06:32:47.926Z,78.79
2023-03-01T06:33:46.971Z,73.48
2023-03-01T06:34:47.938Z,73.64
2023-03-01T06:35:46.977Z,73.32
2023-03-01T06:36:46.947Z,70.90
2023-03-01T06:37:48.459Z,73.64
2023-03-01T06:38:47.938Z,76.22
2023-03-01T06:39:46.930Z,72.67
2023-03-01T06:40:46.925Z,72.51
2023-03-01T06:41:46.916Z,69.93
2023-03-01T06:42:46.907Z,71.87
2023-03-01T06:43:46.894Z,73.15
2023-03-01T06:44:46.889Z,71.70
2023-03-01T06:45:46.884Z,70.58
2023-03-01T06:46:46.931Z,71.06
2023-03-01T06:47:46.869Z,69.93
2023-03-01T06:48:46.858Z,70.58
2023-03-01T06:49:46.858Z,71.22
2023-03-01T06:50:46.929Z,77.34
2023-03-01T06:51:46.858Z,72.35
2023-03-01T06:52:49.430Z,72.19
2023-03-01T06:53:46.820Z,73.80
2023-03-01T06:54:46.804Z,74.12
2023-03-01T06:55:46.830Z,70.90
2023-03-01T06:56:46.790Z,73.48
2023-03-01T06:57:46.780Z,73.32
2023-03-01T06:58:46.781Z,72.51
2023-03-01T06:59:46.763Z,70.42
2023-03-01T07:00:46.761Z,76.70
2023-03-01T07:01:46.794Z,69.77
2023-03-01T07:02:47.444Z,72.03
2023-03-01T07:03:46.739Z,72.51
2023-03-01T07:04:46.726Z,72.35
2023-03-01T07:05:46.716Z,69.13
2023-03-01T07:06:46.710Z,79.12
2023-03-01T07:07:46.704Z,71.38
2023-03-01T07:08:46.695Z,70.42
2023-03-01T07:09:46.684Z,71.54
2023-03-01T07:10:46.693Z,69.61
2023-03-01T07:11:46.667Z,68.96
2023-03-01T07:12:46.670Z,72.51
2023-03-01T07:13:46.656Z,69.77
2023-03-01T07:14:46.648Z,74.12
2023-03-01T07:15:46.684Z,72.03
2023-03-01T07:16:46.627Z,69.77
2023-03-01T07:17:46.625Z,68.32
2023-03-01T07:18:46.618Z,73.48
2023-03-01T07:19:46.606Z,73.96
2023-03-01T07:20:46.654Z,72.03
2023-03-01T07:21:46.607Z,72.03
2023-03-01T07:22:46.585Z,68.16
2023-03-01T07:23:46.575Z,71.22
2023-03-01T07:24:46.586Z,69.61
2023-03-01T07:25:46.556Z,71.38
2023-03-01T07:26:46.556Z,77.18
2023-03-01T07:27:46.543Z,79.12
2023-03-01T07:28:47.432Z,70.42
2023-03-01T07:29:46.536Z,69.61
2023-03-01T07:30:46.537Z,71.22
2023-03-01T07:31:46.527Z,73.48
2023-03-01T07:32:46.653Z,72.03
2023-03-01T07:33:47.496Z,69.13
2023-03-01T07:34:46.510Z,68.96
2023-03-01T07:35:46.503Z,72.83
2023-03-01T07:36:46.472Z,70.58
2023-03-01T07:37:46.485Z,72.51
2023-03-01T07:38:46.462Z,75.41
2023-03-01T07:39:46.441Z,69.45
2023-03-01T07:40:46.435Z,69.45
2023-03-01T07:41:46.442Z,70.74
2023-03-01T07:42:46.465Z,70.25
2023-03-01T07:43:46.418Z,67.68
2023-03-01T07:44:46.403Z,69.29
2023-03-01T07:45:46.437Z,73.80
2023-03-01T07:46:46.389Z,74.77
2023-03-01T07:47:46.379Z,70.42
2023-03-01T07:48:46.939Z,69.77
2023-03-01T07:49:46.365Z,72.99
2023-03-01T07:50:46.394Z,71.70
2023-03-01T07:51:46.339Z,71.87
2023-03-01T07:52:47.338Z,73.64
2023-03-01T07:53:47.337Z,70.58
2023-03-01T07:54:46.327Z,71.22
2023-03-01T07:55:46.328Z,74.44
2023-03-01T07:56:46.304Z,71.70
2023-03-01T07:57:46.302Z,76.38
2023-03-01T07:58:46.285Z,71.22
2023-03-01T07:59:46.277Z,71.22
2023-03-01T08:00:46.275Z,72.51
2023-03-01T08:01:46.303Z,67.68
2023-03-01T08:02:46.275Z,70.09
2023-03-01T08:03:46.281Z,76.38
2023-03-01T08:04:46.242Z,70.42
2023-03-01T08:05:46.234Z,68.48
2023-03-01T08:06:46.229Z,70.58
2023-03-01T08:07:46.241Z,71.06
2023-03-01T08:08:46.211Z,68.96
2023-03-01T08:09:46.277Z,68.96
2023-03-01T08:10:46.190Z,70.42
2023-03-01T08:11:49.033Z,70.42
2023-03-01T08:12:48.026Z,72.51
2023-03-01T08:13:46.170Z,68.64
2023-03-01T08:14:48.021Z,68.16
2023-03-01T08:15:46.147Z,72.67
2023-03-01T08:16:46.187Z,69.29
2023-03-01T08:17:46.144Z,70.58
2023-03-01T08:18:46.132Z,75.57
2023-03-01T08:19:46.132Z,72.51
2023-03-01T08:20:46.124Z,72.19
2023-03-01T08:21:46.116Z,74.28
2023-03-01T08:22:46.113Z,78.31
2023-03-01T08:23:46.087Z,73.48
2023-03-01T08:24:46.077Z,74.28
2023-03-01T08:25:46.076Z,79.12
2023-03-01T08:26:46.064Z,73.48
2023-03-01T08:27:46.078Z,69.93
2023-03-01T08:28:46.050Z,68.80
2023-03-01T08:29:46.038Z,71.54
2023-03-01T08:30:47.059Z,84.76
2023-03-01T08:31:46.118Z,71.22
2023-03-01T08:32:46.208Z,70.90
2023-03-01T08:33:46.055Z,71.06
2023-03-01T08:34:46.003Z,74.93
2023-03-01T08:35:46.019Z,74.12
2023-03-01T08:36:45.991Z,72.35
2023-03-01T08:37:45.974Z,69.77
2023-03-01T08:38:45.992Z,71.22
2023-03-01T08:39:46.100Z,71.22
2023-03-01T08:40:45.975Z,74.28
2023-03-01T08:41:48.232Z,68.32
2023-03-01T08:42:46.961Z,70.42
2023-03-01T08:43:45.931Z,72.51
2023-03-01T08:44:46.947Z,70.25
2023-03-01T08:45:46.940Z,71.38
2023-03-01T08:46:45.898Z,68.48
2023-03-01T08:47:45.903Z,72.35
2023-03-01T08:48:45.883Z,72.19
2023-03-01T08:49:45.885Z,91.04
2023-03-01T08:50:45.879Z,90.72
2023-03-01T08:51:45.865Z,70.90
2023-03-01T08:52:45.851Z,69.61
2023-03-01T08:53:45.845Z,71.38
2023-03-01T08:54:45.842Z,70.58
2023-03-01T08:55:45.841Z,68.64
2023-03-01T08:56:45.820Z,73.32
2023-03-01T08:57:46.452Z,71.38
2023-03-01T08:58:45.803Z,71.22
2023-03-01T08:59:45.788Z,68.32
2023-03-01T09:00:45.804Z,71.54
2023-03-01T09:01:45.781Z,72.99
2023-03-01T09:02:45.770Z,72.03
2023-03-01T09:03:45.781Z,75.73
2023-03-01T09:04:45.788Z,73.48
2023-03-01T09:05:45.757Z,70.42
2023-03-01T09:06:45.752Z,76.70
2023-03-01T09:07:45.751Z,70.42
2023-03-01T09:08:45.731Z,68.48
2023-03-01T09:09:46.732Z,71.06
2023-03-01T09:10:45.725Z,76.38
2023-03-01T09:11:45.715Z,69.93
2023-03-01T09:12:46.450Z,68.32
2023-03-01T09:13:45.713Z,69.29
2023-03-01T09:14:45.695Z,69.61
2023-03-01T09:15:45.681Z,69.29
2023-03-01T09:16:45.706Z,69.61
2023-03-01T09:17:45.652Z,81.86
2023-03-01T09:18:45.698Z,79.28
2023-03-01T09:19:45.680Z,75.89
2023-03-01T09:20:45.640Z,72.35
2023-03-01T09:21:45.621Z,74.28
2023-03-01T09:22:46.632Z,70.09
2023-03-01T09:23:45.623Z,73.80
2023-03-01T09:24:45.614Z,68.96
2023-03-01T09:25:45.601Z,77.34
2023-03-01T09:26:45.597Z,76.05
2023-03-01T09:27:45.603Z,73.96
2023-03-01T09:28:45.593Z,75.89
2023-03-01T09:29:45.577Z,78.15
2023-03-01T09:30:45.593Z,74.28
2023-03-01T09:31:45.558Z,75.73
2023-03-01T09:32:45.539Z,75.89
2023-03-01T09:33:45.560Z,70.25
2023-03-01T09:34:46.550Z,75.25
2023-03-01T09:35:45.552Z,77.02
2023-03-01T09:36:45.514Z,70.09
2023-03-01T09:37:46.054Z,70.09
2023-03-01T09:38:45.500Z,72.03
2023-03-01T09:39:45.504Z,69.29
2023-03-01T09:40:45.497Z,71.38
2023-03-01T09:41:45.474Z,69.61
2023-03-01T09:42:45.471Z,69.77
2023-03-01T09:43:45.458Z,104.90
2023-03-01T09:44:45.458Z,95.07
2023-03-01T09:45:45.513Z,70.42
2023-03-01T09:46:45.450Z,72.51
2023-03-01T09:47:45.433Z,70.90
2023-03-01T09:48:45.424Z,73.48
2023-03-01T09:49:45.413Z,69.45
2023-03-01T09:50:45.429Z,75.09
2023-03-01T09:51:46.060Z,74.77
2023-03-01T09:52:45.401Z,68.00
2023-03-01T09:53:45.397Z,69.61
2023-03-01T09:54:45.961Z,70.90
2023-03-01T09:55:45.384Z,70.74
2023-03-01T09:56:45.365Z,72.99
2023-03-01T09:57:46.365Z,73.80
2023-03-01T09:58:45.355Z,69.77
2023-03-01T09:59:45.353Z,70.09
2023-03-01T10:00:46.969Z,75.25
2023-03-01T10:01:45.344Z,71.22
2023-03-01T10:02:45.326Z,72.51
2023-03-01T10:03:45.482Z,73.32
2023-03-01T10:04:48.138Z,78.79
2023-03-01T10:05:45.307Z,71.70
2023-03-01T10:06:45.296Z,74.12
2023-03-01T10:07:45.276Z,68.64
2023-03-01T10:08:45.277Z,70.58
2023-03-01T10:09:45.281Z,69.93
2023-03-01T10:10:45.285Z,69.45
2023-03-01T10:11:45.255Z,69.61
2023-03-01T10:12:45.244Z,70.42
2023-03-01T10:13:45.262Z,68.00
2023-03-01T10:14:45.230Z,71.06
2023-03-01T10:15:45.240Z,69.29
2023-03-01T10:16:45.213Z,71.38
2023-03-01T10:17:45.199Z,76.38
2023-03-01T10:18:45.211Z,70.58
2023-03-01T10:19:45.195Z,69.45
2023-03-01T10:20:45.175Z,70.09
2023-03-01T10:21:45.167Z,74.44
2023-03-01T10:22:45.162Z,69.77
2023-03-01T10:23:45.156Z,74.12
2023-03-01T10:24:45.154Z,72.03
2023-03-01T10:25:47.055Z,69.61
2023-03-01T10:26:45.159Z,69.29
2023-03-01T10:27:45.121Z,71.87
2023-03-01T10:28:45.114Z,72.03
2023-03-01T10:29:45.122Z,71.38
2023-03-01T10:30:45.159Z,69.45
2023-03-01T10:31:45.087Z,71.38
2023-03-01T10:32:45.085Z,70.42
2023-03-01T10:33:45.072Z,69.61
2023-03-01T10:34:45.077Z,72.51
2023-03-01T10:35:45.092Z,73.96
2023-03-01T10:36:45.074Z,71.06
2023-03-01T10:37:45.059Z,71.70
2023-03-01T10:38:45.036Z,71.54
2023-03-01T10:39:45.548Z,69.77
2023-03-01T10:40:45.019Z,71.70
2023-03-01T10:41:45.012Z,73.15
2023-03-01T10:42:45.010Z,72.03
2023-03-01T10:43:44.992Z,68.96
2023-03-01T10:44:44.986Z,68.32
2023-03-01T10:45:45.977Z,71.38
2023-03-01T10:46:45.086Z,70.42
2023-03-01T10:47:44.967Z,71.22
2023-03-01T10:48:44.962Z,70.25
2023-03-01T10:49:44.967Z,71.38
2023-03-01T10:50:44.949Z,69.61
2023-03-01T10:51:44.936Z,73.15
2023-03-01T10:52:44.926Z,71.06
2023-03-01T10:53:45.556Z,72.51
2023-03-01T10:54:44.959Z,72.19
2023-03-01T10:55:44.906Z,88.62
2023-03-01T10:56:44.888Z,74.44
2023-03-01T10:57:44.893Z,73.64
2023-03-01T10:58:44.883Z,69.61
2023-03-01T10:59:44.864Z,71.54
2023-03-01T11:00:44.859Z,74.28
2023-03-01T11:01:44.860Z,72.03
2023-03-01T11:02:44.859Z,71.38
2023-03-01T11:03:44.840Z,71.70
2023-03-01T11:04:44.864Z,73.48
2023-03-01T11:05:44.821Z,70.42
2023-03-01T11:06:44.829Z,69.93
2023-03-01T11:07:44.803Z,68.16
2023-03-01T11:08:46.554Z,69.13
2023-03-01T11:09:47.577Z,72.99
2023-03-01T11:10:44.802Z,69.61
2023-03-01T11:11:44.793Z,72.19
2023-03-01T11:12:44.814Z,71.54
2023-03-01T11:13:45.577Z,68.64
2023-03-01T11:14:44.961Z,75.41
2023-03-01T11:15:51.649Z,68.96
2023-03-01T11:16:45.733Z,70.74
2023-03-01T11:17:53.903Z,70.42
2023-03-01T11:18:48.476Z,72.51
2023-03-01T11:20:00.922Z,75.89
2023-03-01T11:22:34.692Z,87.98
2023-03-01T11:23:35.623Z,72.35
2023-03-01T11:24:34.613Z,71.22
2023-03-01T11:25:34.605Z,70.90
2023-03-01T11:26:34.653Z,83.31
2023-03-01T11:27:34.605Z,76.05
2023-03-01T11:28:35.493Z,72.19
2023-03-01T11:29:47.661Z,70.74
2023-03-01T11:30:35.599Z,73.32
2023-03-01T11:31:37.087Z,68.48
2023-03-01T11:32:35.584Z,66.39
2023-03-01T11:33:34.567Z,69.93
2023-03-01T11:34:34.546Z,69.93
2023-03-01T11:35:34.527Z,72.03
2023-03-01T11:36:34.521Z,73.32
2023-03-01T11:37:34.532Z,72.35
2023-03-01T11:38:34.512Z,72.51
2023-03-01T11:39:35.503Z,70.09
2023-03-01T11:40:34.490Z,69.77
2023-03-01T11:41:34.897Z,71.38
2023-03-01T11:42:34.494Z,72.51
2023-03-01T11:43:35.467Z,69.93
2023-03-01T11:44:34.462Z,72.03
2023-03-01T11:45:34.511Z,71.70
2023-03-01T11:46:34.661Z,70.58
2023-03-01T11:47:34.553Z,67.19
2023-03-01T11:48:48.462Z,70.58
2023-03-01T11:49:35.425Z,73.15
2023-03-01T11:50:34.412Z,70.90
2023-03-01T11:51:35.007Z,72.03
2023-03-01T11:52:37.988Z,70.25
2023-03-01T11:53:34.384Z,70.09
2023-03-01T11:54:34.388Z,70.90
2023-03-01T11:55:34.376Z,68.48
2023-03-01T11:56:34.372Z,72.51
2023-03-01T11:57:43.301Z,71.54
2023-03-01T11:58:36.438Z,69.77
2023-03-01T11:59:35.454Z,68.80
2023-03-01T12:00:35.446Z,71.38
2023-03-01T12:01:38.533Z,75.73
2023-03-01T12:02:36.485Z,71.54
2023-03-01T12:03:35.410Z,74.77
2023-03-01T12:04:35.502Z,70.90
2023-03-01T12:05:35.405Z,69.13
2023-03-01T12:06:35.385Z,75.89
2023-03-01T12:07:35.375Z,70.90
2023-03-01T12:08:35.374Z,70.58
2023-03-01T12:09:35.373Z,69.93
2023-03-01T12:10:35.349Z,73.96
2023-03-01T12:11:35.341Z,70.25
2023-03-01T12:12:35.357Z,71.22
2023-03-01T12:13:37.094Z,73.15
2023-03-01T12:14:35.338Z,72.35
2023-03-01T12:15:35.319Z,69.61
2023-03-01T12:16:39.248Z,75.73
2023-03-01T12:17:36.292Z,71.87
2023-03-01T12:18:37.167Z,72.51
2023-03-01T12:19:37.052Z,72.03
2023-03-01T12:20:35.296Z,76.54
2023-03-01T12:21:35.618Z,71.06
2023-03-01T12:22:35.254Z,71.54
2023-03-01T12:23:35.248Z,75.89
2023-03-01T12:24:35.244Z,70.58
2023-03-01T12:25:35.224Z,71.87
2023-03-01T12:26:36.094Z,73.48
2023-03-01T12:27:36.079Z,70.90
2023-03-01T12:28:37.084Z,68.16
2023-03-01T12:29:35.192Z,70.25
2023-03-01T12:30:35.187Z,69.93
2023-03-01T12:31:35.424Z,68.32
2023-03-01T12:32:36.416Z,69.93
2023-03-01T12:33:36.187Z,76.38
2023-03-01T12:34:35.182Z,70.74
2023-03-01T12:35:35.162Z,77.83
2023-03-01T12:36:35.140Z,68.96
2023-03-01T12:37:35.143Z,67.68
2023-03-01T12:38:35.145Z,68.96
2023-03-01T12:39:35.145Z,68.96
2023-03-01T12:40:35.115Z,70.90
2023-03-01T12:41:35.097Z,71.38
2023-03-01T12:42:35.093Z,73.48
2023-03-01T12:43:35.075Z,74.12
2023-03-01T12:44:35.091Z,71.38
2023-03-01T12:45:35.154Z,68.00
2023-03-01T12:46:35.088Z,66.71
2023-03-01T12:47:36.060Z,68.96
2023-03-01T12:48:35.040Z,69.13
2023-03-01T12:49:37.008Z,67.51
2023-03-01T12:50:35.083Z,71.22
2023-03-01T12:51:35.515Z,68.64
2023-03-01T12:52:36.519Z,67.51
2023-03-01T12:53:35.008Z,72.03
2023-03-01T12:54:35.004Z,75.57
2023-03-01T12:55:36.752Z,69.61
2023-03-01T12:56:34.986Z,69.45